createdAt,value
2022-07-31T00:03:14.164Z,6.00
2022-07-31T00:08:18.834Z,4.38
2022-07-31T00:13:57.798Z,5.63
2022-07-31T00:18:46.285Z,2.22
2022-07-31T00:23:50.664Z,6.78
2022-07-31T00:28:53.944Z,4.40
2022-07-31T00:33:56.910Z,5.07
2022-07-31T00:39:01.266Z,4.47
2022-07-31T00:44:04.408Z,3.38
2022-07-31T00:49:09.268Z,7.47
2022-07-31T00:54:22.648Z,4.53
2022-07-31T00:59:26.590Z,3.85
2022-07-31T01:04:31.228Z,5.50
2022-07-31T01:09:35.900Z,5.43
2022-07-31T01:14:42.971Z,6.88
2022-07-31T01:19:47.329Z,4.53
2022-07-31T01:25:04.979Z,4.00
2022-07-31T01:30:14.412Z,6.47
2022-07-31T01:35:21.878Z,6.57
2022-07-31T01:40:31.805Z,4.93
2022-07-31T01:45:40.007Z,5.15
2022-07-31T01:50:44.987Z,5.80
2022-07-31T01:56:02.671Z,4.97
2022-07-31T02:01:16.463Z,5.93
2022-07-31T02:06:21.955Z,4.90
2022-07-31T02:11:25.638Z,7.78
2022-07-31T02:16:30.840Z,4.40
2022-07-31T02:21:41.521Z,6.93
2022-07-31T02:26:45.374Z,6.38
2022-07-31T02:32:02.897Z,4.72
2022-07-31T02:37:09.264Z,7.40
2022-07-31T02:42:12.751Z,5.28
2022-07-31T02:47:18.269Z,4.85
2022-07-31T02:52:22.077Z,5.50
2022-07-31T02:57:25.728Z,6.20
2022-07-31T03:02:36.835Z,6.53
2022-07-31T03:07:41.741Z,9.50
2022-07-31T03:12:46.763Z,7.63
2022-07-31T03:17:51.663Z,8.13
2022-07-31T03:23:03.150Z,8.82
2022-07-31T03:28:07.734Z,6.40
2022-07-31T03:33:12.384Z,7.00
2022-07-31T03:38:34.964Z,10.02
2022-07-31T03:43:43.676Z,9.63
2022-07-31T03:48:53.390Z,6.93
2022-07-31T03:53:59.515Z,11.18
2022-07-31T03:59:27.396Z,11.85
2022-07-31T04:04:34.904Z,8.98
2022-07-31T04:09:39.938Z,9.98
2022-07-31T04:14:44.030Z,10.63
2022-07-31T04:19:49.910Z,12.30
2022-07-31T04:24:53.266Z,9.52
2022-07-31T04:30:03.081Z,10.27
2022-07-31T04:35:10.036Z,9.43
2022-07-31T04:40:13.746Z,10.05
2022-07-31T04:45:18.008Z,11.75
2022-07-31T04:50:22.514Z,10.15
2022-07-31T04:55:33.861Z,8.52
2022-07-31T05:00:37.047Z,8.95
2022-07-31T05:05:45.358Z,10.90
2022-07-31T05:11:06.509Z,8.52
2022-07-31T05:16:12.917Z,7.75
2022-07-31T05:21:18.270Z,8.73
2022-07-31T05:26:32.611Z,10.68
2022-07-31T05:31:35.695Z,9.02
2022-07-31T05:36:40.214Z,7.75
2022-07-31T05:41:44.695Z,13.48
2022-07-31T05:51:55.154Z,9.30
2022-07-31T05:56:58.141Z,9.90
2022-07-31T06:02:09.174Z,13.20
2022-07-31T06:07:33.857Z,13.52
2022-07-31T06:12:37.733Z,11.70
2022-07-31T06:17:44.397Z,10.80
2022-07-31T06:23:14.564Z,12.48
2022-07-31T06:28:49.288Z,15.18
2022-07-31T06:33:54.340Z,16.38
2022-07-31T06:39:02.597Z,14.30
2022-07-31T06:44:05.933Z,16.63
2022-07-31T06:49:27.509Z,19.85
2022-07-31T06:54:32.320Z,15.98
2022-07-31T06:59:40.493Z,22.38
2022-07-31T07:05:05.093Z,15.73
2022-07-31T07:10:09.708Z,17.05
2022-07-31T07:15:39.013Z,18.58
2022-07-31T07:20:42.382Z,19.08
2022-07-31T07:25:46.825Z,19.90
2022-07-31T07:30:51.636Z,17.33
2022-07-31T07:35:56.169Z,17.00
2022-07-31T07:41:01.074Z,17.77
2022-07-31T07:46:04.269Z,18.77
2022-07-31T07:51:07.906Z,16.55
2022-07-31T07:56:24.611Z,15.25
2022-07-31T08:01:48.131Z,15.90
2022-07-31T08:06:56.168Z,13.65
2022-07-31T08:12:05.768Z,15.00
2022-07-31T08:17:37.891Z,13.55
2022-07-31T08:22:41.883Z,15.02
2022-07-31T08:27:48.004Z,14.45
2022-07-31T08:32:52.087Z,14.40
2022-07-31T08:38:03.288Z,13.90
2022-07-31T08:44:00.168Z,19.17
2022-07-31T08:48:42.666Z,19.63
2022-07-31T08:53:46.703Z,19.05
2022-07-31T08:58:57.086Z,19.60
2022-07-31T09:04:00.488Z,16.45
2022-07-31T09:09:04.678Z,17.75
2022-07-31T09:14:10.735Z,15.05
2022-07-31T09:19:51.377Z,16.48
2022-07-31T09:24:53.459Z,16.33
2022-07-31T09:29:58.544Z,13.88
2022-07-31T09:35:21.804Z,13.25
2022-07-31T09:40:39.939Z,10.77
2022-07-31T09:46:43.108Z,10.93
2022-07-31T09:51:49.182Z,11.35
2022-07-31T09:56:56.681Z,11.23
2022-07-31T10:02:03.160Z,11.30
2022-07-31T10:07:07.207Z,10.98
2022-07-31T10:12:17.109Z,11.45
2022-07-31T10:17:26.303Z,10.80
2022-07-31T10:22:49.164Z,11.95
2022-07-31T10:27:58.228Z,14.65
2022-07-31T10:33:17.542Z,13.43
2022-07-31T10:39:02.919Z,13.00
2022-07-31T10:44:38.516Z,12.80
2022-07-31T10:50:21.887Z,8.23
2022-07-31T10:55:39.795Z,8.23
2022-07-31T11:01:08.854Z,7.07
2022-07-31T11:06:15.307Z,6.55
2022-07-31T11:11:41.626Z,7.63
2022-07-31T11:18:22.742Z,7.90
2022-07-31T11:23:03.324Z,6.85
2022-07-31T11:28:16.073Z,7.10
2022-07-31T11:33:30.453Z,6.03
2022-07-31T11:38:49.758Z,5.97
2022-07-31T11:43:54.435Z,6.55
2022-07-31T11:48:58.064Z,7.50
2022-07-31T11:54:02.457Z,6.90
2022-07-31T11:59:05.782Z,6.00
2022-07-31T12:04:09.374Z,5.65
2022-07-31T12:10:02.709Z,6.72
2022-07-31T12:14:38.912Z,8.77
2022-07-31T12:19:42.528Z,7.43
2022-07-31T12:24:48.562Z,8.00
2022-07-31T12:29:51.704Z,11.02
2022-07-31T12:35:03.775Z,6.43
2022-07-31T12:40:09.809Z,6.90
2022-07-31T12:45:19.791Z,7.10
2022-07-31T12:50:24.643Z,9.70
2022-07-31T12:55:30.762Z,6.72
2022-07-31T13:00:38.126Z,5.88
2022-07-31T13:05:43.010Z,9.52
2022-07-31T13:10:48.449Z,4.60
2022-07-31T13:15:52.091Z,4.50
2022-07-31T13:20:55.126Z,7.95
2022-07-31T13:26:00.806Z,5.35
2022-07-31T13:31:04.167Z,4.65
2022-07-31T13:36:07.403Z,4.03
2022-07-31T13:41:28.445Z,3.97
2022-07-31T13:46:32.316Z,6.45
2022-07-31T13:51:35.448Z,6.43
2022-07-31T13:56:43.515Z,5.50
2022-07-31T14:02:04.329Z,3.97
2022-07-31T14:07:09.326Z,5.75
2022-07-31T14:12:13.924Z,5.57
2022-07-31T14:17:18.409Z,7.18
2022-07-31T14:22:21.539Z,5.00
2022-07-31T14:27:26.034Z,5.18
2022-07-31T14:32:30.853Z,4.20
2022-07-31T14:37:34.041Z,3.40
2022-07-31T14:42:39.269Z,5.32
2022-07-31T14:47:42.458Z,5.07
2022-07-31T14:52:45.526Z,3.53
2022-07-31T14:57:51.813Z,4.15
2022-07-31T15:02:54.812Z,4.68
2022-07-31T15:07:58.117Z,7.60
2022-07-31T15:13:02.748Z,9.35
2022-07-31T15:18:06.287Z,6.15
2022-07-31T15:23:09.488Z,6.13
2022-07-31T15:28:14.102Z,5.90
2022-07-31T15:33:17.227Z,7.65
2022-07-31T15:38:20.352Z,8.63
2022-07-31T15:43:24.871Z,7.38
2022-07-31T15:48:28.173Z,7.63
2022-07-31T15:53:39.042Z,7.57
2022-07-31T15:58:43.849Z,9.20
2022-07-31T16:03:51.167Z,6.90
2022-07-31T16:08:56.551Z,8.30
2022-07-31T16:14:00.944Z,11.68
2022-07-31T16:19:04.221Z,7.55
2022-07-31T16:24:08.510Z,7.15
2022-07-31T16:29:17.491Z,8.93
2022-07-31T16:34:21.011Z,6.35
2022-07-31T16:39:24.008Z,9.82
2022-07-31T16:44:28.434Z,10.45
2022-07-31T16:49:36.338Z,9.77
2022-07-31T16:54:40.345Z,7.90
2022-07-31T16:59:56.926Z,8.10
2022-07-31T17:05:01.620Z,7.43
2022-07-31T17:10:05.176Z,7.50
2022-07-31T17:15:11.678Z,8.68
2022-07-31T17:20:15.171Z,5.88
2022-07-31T17:25:18.347Z,7.25
2022-07-31T17:30:22.869Z,7.85
2022-07-31T17:35:26.154Z,10.07
2022-07-31T17:40:42.919Z,11.90
2022-07-31T17:45:59.718Z,10.45
2022-07-31T17:51:10.381Z,8.93
2022-07-31T17:56:13.592Z,7.90
2022-07-31T18:01:18.168Z,9.40
2022-07-31T18:06:21.468Z,9.68
2022-07-31T18:11:26.232Z,9.35
2022-07-31T18:16:30.983Z,10.05
2022-07-31T18:21:34.172Z,11.32
2022-07-31T18:26:37.518Z,10.27
2022-07-31T18:31:42.036Z,8.57
2022-07-31T18:36:45.281Z,11.27
2022-07-31T18:41:49.171Z,8.65
2022-07-31T18:46:53.912Z,8.23
2022-07-31T18:51:56.977Z,9.73
2022-07-31T18:56:59.947Z,9.70
2022-07-31T19:02:04.771Z,10.43
2022-07-31T19:07:09.147Z,8.75
2022-07-31T19:12:13.976Z,9.55
2022-07-31T19:17:21.381Z,9.48
2022-07-31T19:22:24.797Z,13.60
2022-07-31T19:27:47.811Z,11.50
2022-07-31T19:32:52.204Z,8.90
2022-07-31T19:37:59.475Z,10.48
2022-07-31T19:43:02.730Z,10.07
2022-07-31T19:48:07.690Z,9.63
2022-07-31T19:53:10.788Z,10.05
2022-07-31T19:58:13.757Z,9.70
2022-07-31T20:03:18.768Z,9.38
2022-07-31T20:08:22.380Z,18.38
2022-07-31T20:13:25.601Z,10.85
2022-07-31T20:18:30.766Z,16.00
2022-07-31T20:23:34.658Z,10.73
2022-07-31T20:28:40.265Z,11.38
2022-07-31T20:33:56.851Z,11.13
2022-07-31T20:39:01.209Z,12.90
2022-07-31T20:44:04.221Z,12.40
2022-07-31T20:49:08.946Z,10.90
2022-07-31T20:54:34.634Z,12.68
2022-07-31T20:59:37.860Z,14.77
2022-07-31T21:04:43.227Z,11.82
2022-07-31T21:09:46.673Z,12.88
2022-07-31T21:14:49.799Z,16.67
2022-07-31T21:19:54.316Z,18.45
2022-07-31T21:24:58.011Z,13.60
2022-07-31T21:30:02.422Z,13.32
2022-07-31T21:35:09.602Z,14.52
2022-07-31T21:40:14.437Z,18.88
2022-07-31T21:45:18.604Z,20.75
2022-07-31T21:50:29.021Z,21.08
2022-07-31T21:55:32.402Z,21.08
2022-07-31T22:00:35.556Z,18.60
2022-07-31T22:05:57.803Z,16.50
2022-07-31T22:11:01.528Z,15.73
2022-07-31T22:16:04.919Z,18.40
2022-07-31T22:21:10.007Z,20.15
2022-07-31T22:26:13.556Z,18.15
2022-07-31T22:31:17.056Z,18.35
2022-07-31T22:36:21.871Z,23.13
2022-07-31T22:41:25.017Z,24.42
2022-07-31T22:46:28.913Z,22.65
2022-07-31T22:51:38.888Z,13.63
2022-07-31T22:56:42.771Z,11.30
2022-07-31T23:01:45.998Z,14.75
2022-07-31T23:06:50.612Z,11.07
2022-07-31T23:11:54.004Z,7.13
2022-07-31T23:16:57.217Z,7.35
2022-07-31T23:22:02.289Z,7.28
2022-07-31T23:27:08.391Z,7.93
2022-07-31T23:32:11.490Z,7.82
2022-07-31T23:37:15.866Z,8.45
2022-07-31T23:42:36.499Z,8.10
2022-07-31T23:47:45.623Z,9.55
2022-07-31T23:52:51.058Z,7.38
2022-07-31T23:57:53.981Z,9.15
